Time;durP1;ratioP1;P1;durP2;ratioP2;P2;SDS_P1;SDS_P2;PMS_P1;PMS_P2;Temp;Humidity;BMP_temperature;BMP_pressure;BME280_temperature;BME280_humidity;BME280_pressure;Samples;Min_cycle;Max_cycle;Signal;HPM_P1;HPM_P2
2022/01/18 00:02:37;;;;;;;;;66.25;52.75;;;;;5.57;69.63;103386.19;4929257;28;45812;-84
2022/01/18 00:05:51;;;;;;;;;64.00;50.00;;;;;5.55;70.08;103371.81;5046017;28;45734;-84
2022/01/18 00:08:21;;;;;;;;;56.25;45.00;;;;;5.33;69.74;103331.66;5039341;28;45637;-88
2022/01/18 00:10:48;;;;;;;;;66.50;53.00;;;;;5.46;69.46;103368.81;5056182;28;47359;-88
2022/01/18 00:16:22;;;;;;;;;64.50;52.00;;;;;5.54;69.72;103375.50;5079951;28;45372;-88
2022/01/18 00:18:51;;;;;;;;;67.00;50.75;;;;;5.19;70.00;103303.59;5086627;27;45569;-88
2022/01/18 00:21:24;;;;;;;;;62.00;46.50;;;;;5.28;69.97;103345.59;5068375;28;47175;-86
2022/01/18 00:24:01;;;;;;;;;57.50;46.00;;;;;5.32;69.73;103324.50;5089521;28;44736;-87
2022/01/18 00:26:32;;;;;;;;;60.75;49.00;;;;;5.55;69.93;103347.31;5067390;28;44760;-87
2022/01/18 00:29:14;;;;;;;;;65.00;50.50;;;;;5.55;69.44;103369.97;5070845;28;45714;-88
2022/01/18 00:31:57;;;;;;;;;50.75;41.25;;;;;5.58;70.01;103371.59;5059679;28;48232;-87
2022/01/18 00:34:28;;;;;;;;;59.25;47.00;;;;;5.49;69.84;103348.63;5068886;28;45280;-87
2022/01/18 00:36:59;;;;;;;;;63.25;49.50;;;;;5.36;69.42;103316.00;5101035;27;45260;-86
2022/01/18 00:39:26;;;;;;;;;58.75;47.75;;;;;5.59;69.75;103371.50;5072472;28;45430;-87
2022/01/18 00:41:52;;;;;;;;;56.75;44.75;;;;;5.59;70.41;103354.28;5072568;28;45524;-85
2022/01/18 00:44:18;;;;;;;;;58.75;46.50;;;;;5.33;69.46;103312.63;5060824;28;45917;-82
2022/01/18 00:46:47;;;;;;;;;61.50;48.25;;;;;5.55;69.55;103358.22;5054380;28;45286;-84
2022/01/18 00:49:40;;;;;;;;;56.00;45.00;;;;;5.33;69.93;103323.50;5064279;28;45730;-83
2022/01/18 00:52:07;;;;;;;;;64.50;47.25;;;;;5.08;70.01;103274.47;5062417;28;46791;-82
2022/01/18 00:54:53;;;;;;;;;63.25;49.75;;;;;5.33;69.02;103318.06;5053393;28;45702;-83
2022/01/18 00:57:21;;;;;;;;;60.50;49.00;;;;;5.23;68.70;103309.72;5039717;28;45268;-82
2022/01/18 00:59:47;;;;;;;;;57.25;46.00;;;;;5.46;69.20;103357.91;5042747;28;46772;-82
2022/01/18 01:02:17;;;;;;;;;56.75;45.25;;;;;5.31;68.91;103326.34;5068978;28;45450;-79
2022/01/18 01:04:53;;;;;;;;;60.25;47.25;;;;;5.30;69.48;103330.06;5061456;28;45643;-83
2022/01/18 01:07:52;;;;;;;;;;;;;;;;;;;;;
2022/01/18 01:10:21;;;;;;;;;59.00;47.75;;;;;5.34;69.12;103356.06;5065201;28;73211;-81
2022/01/18 01:12:53;;;;;;;;;56.25;43.75;;;;;5.06;68.89;103306.34;5078291;28;45689;-81
2022/01/18 01:15:21;;;;;;;;;56.00;45.50;;;;;5.19;69.22;103341.69;5077207;28;45588;-81
2022/01/18 01:17:54;;;;;;;;;57.50;47.00;;;;;5.06;68.72;103327.22;5059008;28;45366;-81
2022/01/18 01:42:15;;;;;;;;;49.00;37.25;;;;;4.58;69.99;103306.97;5071173;28;44856;-83
2022/01/18 01:44:44;;;;;;;;;48.75;39.25;;;;;4.91;68.94;103364.53;5049419;28;47186;-80
2022/01/18 01:47:12;;;;;;;;;50.75;38.75;;;;;4.70;70.08;103324.28;5078484;28;45867;-84
2022/01/18 01:49:43;;;;;;;;;37.00;34.00;;;;;4.69;69.75;103340.69;5057636;28;44768;-83
2022/01/18 01:52:11;;;;;;;;;32.50;24.75;;;;;4.60;69.51;103307.72;5056286;28;47186;-82
2022/01/18 01:54:51;;;;;;;;;38.25;34.50;;;;;4.69;69.19;103330.69;5057325;28;47387;-79
2022/01/18 02:03:52;;;;;;;;;31.00;29.00;;;;;4.74;70.28;103347.53;5051930;27;44957;-85
2022/01/18 02:06:18;;;;;;;;;34.75;31.75;;;;;4.83;70.89;103358.75;5064080;28;46177;-85
2022/01/18 02:08:52;;;;;;;;;29.75;25.50;;;;;4.77;70.19;103344.63;5082761;28;44861;-83
2022/01/18 02:11:21;;;;;;;;;36.25;29.00;;;;;4.89;69.73;103358.31;5060622;28;45343;-80
2022/01/18 02:13:54;;;;;;;;;36.25;30.00;;;;;4.90;70.38;103355.50;5080836;28;46226;-83
2022/01/18 02:21:52;;;;;;;;;37.00;27.50;;;;;4.86;70.42;103353.97;5077204;27;45385;-86
2022/01/18 02:24:21;;;;;;;;;30.25;25.00;;;;;4.72;70.98;103329.59;5062437;28;45576;-86
2022/01/18 02:26:47;;;;;;;;;37.25;27.50;;;;;4.82;71.37;103362.44;5072060;27;47363;-81
2022/01/18 02:29:13;;;;;;;;;28.75;23.75;;;;;4.78;71.09;103359.09;5056891;28;45468;-82
2022/01/18 02:31:39;;;;;;;;;35.25;23.50;;;;;4.74;71.68;103352.97;5078775;28;45546;-81
2022/01/18 02:34:13;;;;;;;;;24.25;22.75;;;;;4.70;72.34;103354.19;5076771;28;45925;-86
2022/01/18 02:36:39;;;;;;;;;26.25;22.25;;;;;4.66;71.65;103358.06;5079472;28;45457;-86
2022/01/18 02:39:06;;;;;;;;;30.00;23.00;;;;;4.58;72.20;103353.16;5056770;28;45936;-88
2022/01/18 02:41:32;;;;;;;;;33.75;22.50;;;;;4.30;72.31;103313.41;5068446;28;45438;-86
2022/01/18 02:44:00;;;;;;;;;25.25;19.75;;;;;4.54;72.45;103369.78;5040765;28;46053;-87
2022/01/18 02:46:39;;;;;;;;;27.00;20.00;;;;;4.27;71.59;103308.19;5058353;28;46433;-89
2022/01/18 02:49:12;;;;;;;;;26.00;22.75;;;;;4.50;71.50;103346.50;5053455;28;45753;-84
2022/01/18 02:51:37;;;;;;;;;29.75;23.50;;;;;4.38;72.84;103340.06;5037858;28;45392;-85
2022/01/18 02:54:08;;;;;;;;;27.50;22.00;;;;;4.15;72.25;103325.31;5058058;28;45919;-82
2022/01/18 02:56:38;;;;;;;;;27.50;22.75;;;;;4.38;72.06;103343.63;5074218;28;45841;-83
2022/01/18 02:59:23;;;;;;;;;26.00;21.25;;;;;4.14;72.54;103315.44;5054701;28;45518;-83
2022/01/18 03:04:47;;;;;;;;;24.25;20.50;;;;;3.86;72.38;103287.38;5076352;28;45357;-86
2022/01/18 03:07:14;;;;;;;;;31.00;21.00;;;;;3.96;72.94;103291.22;5057754;28;47641;-84
2022/01/18 03:09:51;;;;;;;;;22.50;19.50;;;;;4.13;72.83;103344.44;5058003;28;45440;-85
2022/01/18 03:12:16;;;;;;;;;20.50;20.50;;;;;4.16;72.85;103319.78;5055312;28;45462;-85
2022/01/18 03:14:52;;;;;;;;;31.00;21.25;;;;;4.26;73.18;103333.59;5037090;28;45649;-86
2022/01/18 03:17:42;;;;;;;;;25.75;24.00;;;;;4.02;72.27;103292.69;5065117;28;45628;-83
2022/01/18 03:20:34;;;;;;;;;35.50;25.25;;;;;4.03;73.29;103279.00;5062266;28;44804;-83
2022/01/18 03:22:59;;;;;;;;;28.50;19.75;;;;;4.37;73.19;103309.31;5036996;28;45542;-84
2022/01/18 03:29:43;;;;;;;;;24.25;20.75;;;;;4.58;71.89;103290.66;5056671;27;45383;-85
2022/01/18 03:33:18;;;;;;;;;;;;;;;;;;;;;
2022/01/18 03:36:14;;;;;;;;;28.00;23.75;;;;;4.94;71.75;103301.78;4999537;28;69147;-84
2022/01/18 03:38:42;;;;;;;;;25.25;20.75;;;;;5.06;71.93;103300.03;5036174;28;46032;-87
2022/01/18 03:41:08;;;;;;;;;30.00;22.25;;;;;4.71;71.37;103236.28;5037143;28;46605;-83
2022/01/18 03:44:08;;;;;;;;;;;;;;;;;;;;;
2022/01/18 03:47:12;;;;;;;;;25.50;18.00;;;;;5.35;69.85;103297.06;5052869;28;66839;-83
2022/01/18 03:50:03;;;;;;;;;27.00;21.50;;;;;5.40;69.49;103313.94;5034686;28;45964;-83
2022/01/18 03:52:42;;;;;;;;;28.67;20.67;;;;;5.35;69.01;103287.06;5049360;28;45509;-84
2022/01/18 03:55:30;;;;;;;;;13.00;13.00;;;;;5.50;68.77;103287.78;5059823;28;45844;-85
2022/01/18 03:57:56;;;;;;;;;25.00;19.75;;;;;5.58;69.38;103309.84;5067685;28;45304;-86
2022/01/18 04:00:28;;;;;;;;;25.50;20.75;;;;;5.48;68.77;103278.88;5067641;27;46388;-85
2022/01/18 04:02:59;;;;;;;;;21.00;18.00;;;;;5.68;68.30;103284.69;5057279;28;47278;-83
2022/01/18 04:05:25;;;;;;;;;25.00;22.00;;;;;5.54;68.57;103256.63;5058433;28;45423;-81
2022/01/18 04:08:02;;;;;;;;;29.25;19.00;;;;;5.81;68.19;103308.16;5078259;28;45547;-82
2022/01/18 04:11:16;;;;;;;;;21.67;19.00;;;;;5.86;67.72;103294.19;5062200;28;45525;-83
2022/01/18 04:14:47;;;;;;;;;20.67;18.67;;;;;5.92;67.78;103312.81;5056956;27;46943;-84
2022/01/18 04:29:41;;;;;;;;;17.00;17.00;;;;;5.90;67.34;103240.38;5062667;28;45820;-79
2022/01/18 04:32:47;;;;;;;;;;;;;;;;;;;;;
2022/01/18 04:35:17;;;;;;;;;24.67;18.67;;;;;6.15;66.60;103267.53;5057850;28;74435;-80
2022/01/18 04:37:43;;;;;;;;;25.67;18.33;;;;;6.34;66.62;103302.38;5058656;28;46011;-81
2022/01/18 04:40:14;;;;;;;;;26.00;20.75;;;;;6.38;66.50;103310.31;5057878;28;45474;-85
2022/01/18 04:50:46;;;;;;;;;22.33;19.33;;;;;6.43;65.55;103299.97;5076771;28;45400;-85
2022/01/18 04:53:21;;;;;;;;;27.00;22.25;;;;;6.45;65.81;103290.69;5058453;27;45545;-85
2022/01/18 04:55:53;;;;;;;;;25.00;20.00;;;;;6.47;65.95;103293.28;5058185;27;45804;-84
2022/01/18 04:58:20;;;;;;;;;30.33;21.33;;;;;6.48;65.76;103301.34;5097752;27;46711;-84
2022/01/18 05:00:46;;;;;;;;;29.67;24.67;;;;;6.07;65.50;103215.47;5083571;27;45468;-83
2022/01/18 05:03:12;;;;;;;;;26.33;20.33;;;;;6.52;65.25;103294.66;5100485;27;45492;-86
2022/01/18 05:05:37;;;;;;;;;21.33;19.67;;;;;6.35;65.27;103260.53;5084076;27;46207;-86
2022/01/18 05:08:16;;;;;;;;;32.75;23.00;;;;;6.47;65.05;103283.25;5099505;27;45486;-84
2022/01/18 05:10:43;;;;;;;;;23.67;21.00;;;;;6.32;64.81;103249.88;5082698;27;45847;-79
2022/01/18 05:24:19;;;;;;;;;28.00;21.00;;;;;6.46;65.03;103275.19;4993373;28;45551;-82
2022/01/18 05:26:44;;;;;;;;;28.00;23.67;;;;;6.18;64.44;103228.25;5009610;28;46123;-84
2022/01/18 05:29:10;;;;;;;;;24.00;22.33;;;;;6.56;64.32;103291.69;5043088;28;47091;-85
2022/01/18 05:31:38;;;;;;;;;26.67;22.00;;;;;6.50;64.59;103290.31;5037825;28;46057;-80
2022/01/18 05:34:04;;;;;;;;;23.00;20.00;;;;;6.48;64.71;103286.81;5039052;28;45477;-81
2022/01/18 05:36:31;;;;;;;;;26.67;21.00;;;;;6.45;64.87;103278.88;5039299;28;46415;-80
2022/01/18 05:38:56;;;;;;;;;30.33;23.33;;;;;6.37;64.42;103274.03;5038117;28;47204;-81
2022/01/18 05:41:22;;;;;;;;;28.33;22.67;;;;;6.34;64.74;103266.09;5051775;28;45371;-83
2022/01/18 05:43:50;;;;;;;;;22.00;21.33;;;;;6.35;64.81;103276.03;5037033;28;45776;-81
2022/01/18 05:46:16;;;;;;;;;26.67;18.00;;;;;6.20;64.38;103253.56;5057556;28;45586;-80
2022/01/18 05:48:42;;;;;;;;;34.33;20.33;;;;;6.14;64.44;103256.75;5044417;28;47315;-81
2022/01/18 05:51:08;;;;;;;;;20.00;16.67;;;;;6.02;64.51;103266.72;5044231;28;45566;-82
2022/01/18 05:53:36;;;;;;;;;17.67;17.67;;;;;5.67;65.21;103223.91;5039989;28;45518;-81
2022/01/18 05:56:11;;;;;;;;;23.67;17.67;;;;;5.76;65.50;103255.03;5055567;28;45593;-80
2022/01/18 05:58:41;;;;;;;;;23.33;17.00;;;;;5.69;66.04;103268.25;5037577;28;46346;-89
2022/01/18 06:01:08;;;;;;;;;24.00;19.00;;;;;5.60;66.21;103274.38;5055673;28;45154;-85
2022/01/18 06:06:55;;;;;;;;;21.50;19.50;;;;;5.33;67.59;103274.53;5065198;28;46175;-80
2022/01/18 06:09:22;;;;;;;;;23.00;14.75;;;;;5.11;67.48;103257.91;5039915;28;46600;-79
2022/01/18 06:11:47;;;;;;;;;16.75;15.50;;;;;5.19;67.81;103279.13;5041615;28;45794;-80
2022/01/18 06:14:13;;;;;;;;;18.67;14.00;;;;;5.04;68.04;103255.75;5074092;28;45854;-80
2022/01/18 06:16:38;;;;;;;;;28.50;23.00;;;;;5.03;68.37;103279.38;5061218;27;45827;-79
2022/01/18 06:19:04;;;;;;;;;60.00;46.25;;;;;4.95;67.70;103271.78;5067061;27;46068;-82
2022/01/18 06:21:30;;;;;;;;;22.75;17.75;;;;;4.96;68.92;103278.06;5057890;28;45462;-80
2022/01/18 06:23:55;;;;;;;;;24.75;18.25;;;;;5.04;68.62;103283.81;5076354;27;45771;-81
2022/01/18 06:26:20;;;;;;;;;25.75;22.25;;;;;5.07;69.11;103294.47;5069172;27;45492;-84
2022/01/18 06:28:46;;;;;;;;;25.50;23.25;;;;;5.10;68.23;103301.53;5070111;27;45987;-83
2022/01/18 06:31:13;;;;;;;;;25.25;17.25;;;;;5.14;68.88;103300.34;5062767;27;46402;-81
2022/01/18 06:33:38;;;;;;;;;31.25;24.75;;;;;5.09;68.61;103284.38;5049871;28;45821;-84
2022/01/18 06:36:04;;;;;;;;;29.50;19.75;;;;;5.26;68.45;103299.47;5049532;28;46859;-80
2022/01/18 06:38:31;;;;;;;;;28.50;23.00;;;;;5.30;68.25;103308.28;5058687;28;46464;-76
2022/01/18 06:40:57;;;;;;;;;23.75;19.75;;;;;5.33;68.45;103299.91;5062006;28;45955;-81
2022/01/18 06:43:22;;;;;;;;;25.00;23.25;;;;;5.38;67.25;103295.00;5048967;28;45893;-76
2022/01/18 06:45:48;;;;;;;;;24.00;20.50;;;;;5.43;67.63;103301.00;5058906;27;45960;-81
2022/01/18 06:48:14;;;;;;;;;27.25;21.25;;;;;5.45;67.70;103300.88;5048640;28;48130;-80
2022/01/18 06:50:39;;;;;;;;;20.75;18.25;;;;;5.48;67.03;103300.66;5054152;28;45841;-81
2022/01/18 06:53:05;;;;;;;;;27.75;19.25;;;;;5.52;67.41;103301.28;5072584;27;45716;-81
2022/01/18 06:55:30;;;;;;;;;22.00;20.00;;;;;5.56;67.21;103305.53;5054023;28;45787;-79
2022/01/18 06:57:56;;;;;;;;;20.25;17.25;;;;;5.56;66.76;103300.09;5057393;28;45730;-79
2022/01/18 07:00:22;;;;;;;;;24.75;22.50;;;;;5.61;66.44;103312.38;5055356;28;45384;-84
2022/01/18 07:02:48;;;;;;;;;23.25;18.25;;;;;5.62;66.49;103305.94;5054086;28;45551;-75
2022/01/18 07:05:13;;;;;;;;;22.75;19.75;;;;;5.65;66.93;103310.28;5034279;28;45649;-78
2022/01/18 07:07:47;;;;;;;;;33.00;21.00;;;;;5.65;65.65;103307.56;5044298;28;47359;-82
2022/01/18 07:10:13;;;;;;;;;21.00;19.00;;;;;5.66;66.09;103306.59;5084215;27;45608;-82
2022/01/18 07:12:39;;;;;;;;;27.75;24.75;;;;;5.64;66.75;103303.97;5081075;27;45198;-85
2022/01/18 07:15:08;;;;;;;;;31.00;24.75;;;;;5.65;66.50;103294.81;5064740;28;45982;-79
2022/01/18 07:17:36;;;;;;;;;20.25;18.50;;;;;5.54;66.30;103272.09;5049771;28;47105;-79
2022/01/18 07:20:04;;;;;;;;;29.00;23.75;;;;;5.51;66.09;103272.31;5065976;27;45842;-76
2022/01/18 07:22:30;;;;;;;;;28.50;24.50;;;;;5.51;66.58;103277.75;5070005;27;45787;-82
2022/01/18 07:24:57;;;;;;;;;22.25;18.75;;;;;5.52;66.43;103284.94;5071414;27;45592;-83
2022/01/18 07:27:24;;;;;;;;;27.25;18.00;;;;;5.46;67.19;103287.16;5054439;27;47024;-82
2022/01/18 07:29:50;;;;;;;;;32.25;23.75;;;;;5.36;67.08;103268.88;5070712;27;45961;-83
2022/01/18 07:32:16;;;;;;;;;27.50;20.25;;;;;5.42;66.70;103290.19;5079776;27;45736;-85
2022/01/18 07:34:53;;;;;;;;;24.67;19.00;;;;;5.36;67.16;103274.31;5064347;27;45977;-84
2022/01/18 07:37:20;;;;;;;;;25.75;20.00;;;;;5.41;66.65;103278.44;5057421;28;46773;-80
2022/01/18 07:39:48;;;;;;;;;32.75;27.50;;;;;5.38;67.41;103262.34;5053501;27;46117;-77
2022/01/18 07:42:14;;;;;;;;;35.00;31.75;;;;;5.37;67.50;103260.59;5070504;27;45570;-80
2022/01/18 07:44:39;;;;;;;;;34.50;26.75;;;;;5.40;67.60;103260.34;5069444;27;45536;-81
2022/01/18 07:47:05;;;;;;;;;36.25;30.00;;;;;5.40;67.15;103257.63;5047856;27;46776;-81
2022/01/18 07:49:31;;;;;;;;;41.50;32.75;;;;;5.42;67.00;103263.84;5078691;27;45702;-84
2022/01/18 07:51:56;;;;;;;;;38.25;34.00;;;;;5.35;67.02;103253.53;5064810;27;45471;-84
2022/01/18 07:54:22;;;;;;;;;33.25;29.25;;;;;5.36;68.03;103256.16;5055592;27;45722;-85
2022/01/18 07:56:47;;;;;;;;;34.75;28.00;;;;;5.45;68.45;103263.63;5080157;27;45359;-84
2022/01/18 07:59:13;;;;;;;;;35.75;29.75;;;;;5.50;68.73;103279.63;5086504;27;45455;-83
2022/01/18 08:01:39;;;;;;;;;34.50;33.50;;;;;5.55;68.43;103269.25;5082420;27;44758;-83
2022/01/18 08:04:05;;;;;;;;;46.25;35.25;;;;;5.61;67.71;103278.81;5062234;27;46048;-83
2022/01/18 08:06:31;;;;;;;;;33.50;27.75;;;;;5.58;68.10;103251.81;5063987;27;46965;-83
2022/01/18 08:08:56;;;;;;;;;36.50;32.00;;;;;5.57;67.85;103226.47;5061014;28;45576;-82
2022/01/18 08:11:22;;;;;;;;;38.75;33.75;;;;;5.69;66.96;103249.19;5072787;28;45801;-85
2022/01/18 08:13:49;;;;;;;;;35.50;28.00;;;;;5.71;67.73;103235.47;5048595;28;45893;-82
2022/01/18 08:18:57;;;;;;;;;41.75;31.75;;;;;5.91;66.88;103253.00;5060128;28;45700;-84
2022/01/18 08:21:26;;;;;;;;;38.75;29.75;;;;;5.92;67.38;103241.13;5066908;28;45887;-83
2022/01/18 08:23:51;;;;;;;;;37.50;28.50;;;;;5.71;66.26;103209.09;5041461;28;45849;-84
2022/01/18 08:26:17;;;;;;;;;39.00;27.00;;;;;6.11;66.35;103265.16;5039989;28;47049;-83
2022/01/18 08:28:43;;;;;;;;;33.25;28.25;;;;;6.10;66.11;103236.16;5055246;28;45629;-83
2022/01/18 08:31:09;;;;;;;;;32.00;27.00;;;;;6.27;65.62;103264.81;5065909;28;45461;-81
2022/01/18 08:33:34;;;;;;;;;40.00;27.50;;;;;6.29;65.45;103251.97;5074790;28;44837;-82
2022/01/18 08:36:03;;;;;;;;;41.25;30.50;;;;;6.40;65.62;103267.50;5049699;28;47269;-80
2022/01/18 08:38:30;;;;;;;;;44.25;34.00;;;;;6.45;65.20;103265.25;5049758;28;45421;-76
2022/01/18 08:40:58;;;;;;;;;29.50;26.75;;;;;6.53;65.43;103260.09;5085014;28;45303;-80
2022/01/18 08:43:24;;;;;;;;;34.50;30.50;;;;;6.62;64.92;103264.81;5091239;27;45346;-81
2022/01/18 08:45:49;;;;;;;;;38.00;34.00;;;;;6.60;63.62;103258.63;5093232;28;45602;-81
2022/01/18 08:48:15;;;;;;;;;37.50;33.25;;;;;6.63;63.53;103255.66;5079548;28;45478;-80
2022/01/18 08:50:41;;;;;;;;;37.75;34.00;;;;;6.66;63.88;103260.88;5079121;28;44758;-82
2022/01/18 08:53:07;;;;;;;;;43.00;32.50;;;;;6.70;63.51;103261.47;5052183;28;45391;-82
2022/01/18 08:55:34;;;;;;;;;43.50;33.00;;;;;6.69;63.53;103249.72;5045745;28;46790;-77
2022/01/18 08:58:00;;;;;;;;;34.25;30.50;;;;;6.88;62.96;103264.63;5066351;28;45403;-84
2022/01/18 09:00:26;;;;;;;;;36.50;32.00;;;;;6.91;62.61;103264.38;5064698;28;45347;-84
2022/01/18 09:02:51;;;;;;;;;27.00;18.75;;;;;6.99;63.16;103255.56;5049490;28;46168;-84
2022/01/18 09:05:21;;;;;;;;;33.00;28.00;;;;;7.17;62.60;103265.00;5085383;28;46151;-82
2022/01/18 09:08:15;;;;;;;;;40.50;32.75;;;;;7.24;61.79;103222.59;5046861;28;44857;-85
2022/01/18 09:10:41;;;;;;;;;46.00;33.25;;;;;7.73;61.26;103255.88;5056165;28;45783;-82
2022/01/18 09:13:08;;;;;;;;;38.25;33.75;;;;;8.15;61.17;103259.72;5067218;28;45853;-85
2022/01/18 09:15:33;;;;;;;;;47.50;34.50;;;;;8.26;59.37;103246.88;5078850;28;45897;-85
2022/01/18 09:17:59;;;;;;;;;43.50;35.75;;;;;8.44;59.51;103251.75;5082331;28;45406;-85
2022/01/18 09:20:24;;;;;;;;;43.50;32.75;;;;;9.02;58.54;103263.03;5075724;28;45870;-83
2022/01/18 09:22:52;;;;;;;;;42.75;32.50;;;;;9.83;56.82;103247.59;5052398;28;45989;-86
2022/01/18 09:25:26;;;;;;;;;46.50;34.25;;;;;10.90;54.22;103258.50;5049593;27;46649;-84
2022/01/18 09:27:53;;;;;;;;;38.50;32.00;;;;;11.57;51.61;103230.00;5041990;28;45279;-86
2022/01/18 09:30:22;;;;;;;;;43.75;33.00;;;;;12.19;49.94;103232.91;5062948;28;44852;-86
2022/01/18 09:32:48;;;;;;;;;35.67;31.67;;;;;12.62;49.00;103211.03;5074640;27;45731;-87
2022/01/18 09:35:15;;;;;;;;;34.67;31.00;;;;;13.42;47.98;103258.50;5086596;27;47347;-86
2022/01/18 09:37:43;;;;;;;;;35.67;31.00;;;;;13.33;47.18;103182.31;5082331;27;45450;-87
2022/01/18 09:40:10;;;;;;;;;43.67;33.33;;;;;13.78;46.83;103227.94;5092914;28;45288;-85
2022/01/18 09:45:29;;;;;;;;;39.25;35.00;;;;;14.52;46.40;103242.81;5068729;28;45838;-85
2022/01/18 09:48:00;;;;;;;;;46.67;35.33;;;;;14.74;45.44;103222.78;5077733;28;44746;-83
2022/01/18 09:50:33;;;;;;;;;35.00;27.00;;;;;14.84;44.81;103208.81;5077764;28;44717;-85
2022/01/18 09:53:12;;;;;;;;;38.33;29.67;;;;;15.20;45.02;103224.06;5062191;28;44874;-82
2022/01/18 09:55:50;;;;;;;;;31.00;29.67;;;;;15.02;44.66;103204.97;5060556;28;46910;-78
2022/01/18 09:58:51;;;;;;;;;;;;;;;;;;;;;
2022/01/18 10:02:19;;;;;;;;;;;;;;;;;;;;;
2022/01/18 10:04:53;;;;;;;;;28.33;25.67;;;;;15.12;44.28;103212.00;5069835;27;73397;-81
2022/01/18 10:07:54;;;;;;;;;30.00;26.67;;;;;14.93;44.58;103207.72;5103683;27;47277;-84
2022/01/18 10:11:02;;;;;;;;;36.33;29.67;;;;;15.02;45.07;103246.41;4961976;28;45251;-83
2022/01/18 10:13:58;;;;;;;;;27.00;22.67;;;;;14.74;45.09;103197.09;5032465;28;45313;-86
2022/01/18 10:16:29;;;;;;;;;34.67;28.33;;;;;14.76;44.68;103214.34;5052767;28;45235;-74
2022/01/18 10:19:07;;;;;;;;;32.67;28.67;;;;;14.84;45.14;103241.97;5029660;28;47081;-75
2022/01/18 10:22:09;;;;;;;;;26.00;23.67;;;;;14.69;45.50;103233.53;5048537;28;45596;-77
2022/01/18 10:24:34;;;;;;;;;26.00;23.00;;;;;14.68;45.22;103229.03;5088933;28;45534;-81
2022/01/18 10:27:12;;;;;;;;;29.33;22.67;;;;;14.38;46.00;103208.50;5062840;28;45503;-75
2022/01/18 10:29:53;;;;;;;;;30.67;24.33;;;;;14.27;46.18;103187.63;5049890;28;47296;-78
2022/01/18 10:32:35;;;;;;;;;28.67;25.67;;;;;14.35;46.59;103197.81;5054718;28;45508;-79
2022/01/18 10:35:07;;;;;;;;;36.00;27.00;;;;;14.29;46.12;103226.97;5039172;28;45983;-79
2022/01/18 10:37:35;;;;;;;;;31.67;27.00;;;;;14.15;47.15;103208.31;5010233;28;45473;-76
2022/01/18 10:40:14;;;;;;;;;28.67;24.67;;;;;14.00;46.63;103199.88;5045238;28;45514;-74
2022/01/18 10:42:42;;;;;;;;;32.00;24.67;;;;;13.88;47.69;103202.97;5035985;28;45802;-74
2022/01/18 10:45:23;;;;;;;;;30.33;26.67;;;;;13.74;47.71;103195.34;5044318;28;45550;-75
2022/01/18 10:48:11;;;;;;;;;22.33;19.33;;;;;13.57;48.84;103195.31;5044864;28;45657;-77
2022/01/18 10:50:40;;;;;;;;;25.67;22.67;;;;;13.47;48.44;103193.75;5054390;28;46552;-74
2022/01/18 10:53:20;;;;;;;;;30.00;24.67;;;;;13.35;49.12;103188.56;5038088;28;45711;-75
2022/01/18 10:55:48;;;;;;;;;28.33;23.67;;;;;13.26;49.32;103178.47;5054131;28;45903;-73
2022/01/18 10:58:18;;;;;;;;;30.00;26.67;;;;;13.18;49.70;103161.94;5049719;28;45658;-75
2022/01/18 11:00:44;;;;;;;;;31.67;26.67;;;;;13.17;49.60;103165.72;5036592;28;45505;-74
2022/01/18 11:03:10;;;;;;;;;29.33;27.33;;;;;13.07;50.60;103154.84;5057496;28;45834;-80
2022/01/18 11:05:38;;;;;;;;;31.67;27.67;;;;;13.05;50.36;103154.13;5068577;28;45530;-80
2022/01/18 11:08:06;;;;;;;;;23.00;20.67;;;;;12.96;51.07;103153.22;5067193;28;45453;-80
2022/01/18 11:10:40;;;;;;;;;34.00;24.00;;;;;12.80;50.84;103144.88;5070911;28;45178;-81
2022/01/18 11:13:10;;;;;;;;;23.33;18.33;;;;;12.71;51.17;103133.84;5067361;28;45501;-78
2022/01/18 11:15:42;;;;;;;;;23.00;20.67;;;;;12.67;51.84;103148.13;5073914;28;45600;-72
2022/01/18 11:18:24;;;;;;;;;22.67;18.00;;;;;12.59;50.94;103139.78;5075948;28;45778;-71
2022/01/18 11:20:49;;;;;;;;;27.00;19.00;;;;;12.48;51.11;103133.53;5054426;28;45584;-73
2022/01/18 11:23:17;;;;;;;;;20.67;17.00;;;;;12.40;51.69;103127.16;5047700;28;45526;-71
2022/01/18 11:25:43;;;;;;;;;18.67;13.67;;;;;12.30;51.38;103118.97;5047518;28;45540;-77
2022/01/18 11:28:11;;;;;;;;;17.00;13.67;;;;;12.16;51.68;103107.53;5075766;28;45461;-74
2022/01/18 11:30:42;;;;;;;;;26.33;18.33;;;;;12.01;52.27;103126.50;5054592;28;46202;-73
2022/01/18 11:33:12;;;;;;;;;16.00;16.00;;;;;11.91;52.84;103100.97;5047522;28;45497;-74
2022/01/18 11:35:37;;;;;;;;;18.00;16.00;;;;;11.97;52.93;103091.25;5071848;28;45617;-76
2022/01/18 11:38:42;;;;;;;;;22.00;17.33;;;;;11.94;52.66;103092.41;5064282;28;45033;-72
2022/01/18 11:41:24;;;;;;;;;18.67;15.00;;;;;11.83;53.33;103089.91;5065350;28;45436;-79
2022/01/18 11:43:51;;;;;;;;;17.67;14.67;;;;;11.67;53.32;103068.63;5060575;28;45568;-77
2022/01/18 11:46:34;;;;;;;;;23.67;21.00;;;;;11.66;53.75;103080.66;5059886;28;45418;-80
2022/01/18 11:49:14;;;;;;;;;26.33;22.33;;;;;11.63;53.48;103086.47;5055311;28;45439;-72
2022/01/18 11:51:53;;;;;;;;;18.67;16.00;;;;;11.52;54.17;103076.56;5049635;28;46927;-71
2022/01/18 11:54:39;;;;;;;;;24.00;18.33;;;;;11.47;54.15;103063.31;5061236;28;46385;-70
2022/01/18 11:57:19;;;;;;;;;17.00;14.00;;;;;11.45;54.42;103068.13;5036944;28;45795;-70
2022/01/18 11:59:45;;;;;;;;;18.33;15.33;;;;;11.40;54.60;103062.22;5056383;28;45334;-74
2022/01/18 12:02:11;;;;;;;;;15.00;12.00;;;;;11.39;54.68;103071.50;5061926;28;45426;-70
2022/01/18 12:04:49;;;;;;;;;19.33;15.00;;;;;11.38;54.40;103066.16;5061458;28;45610;-71
2022/01/18 12:07:39;;;;;;;;;14.33;10.67;;;;;11.23;52.99;103071.34;5057540;28;45493;-79
2022/01/18 12:10:34;;;;;;;;;13.67;12.00;;;;;11.09;53.96;103042.50;5039165;28;45372;-73
2022/01/18 12:13:04;;;;;;;;;7.00;7.00;;;;;11.06;54.78;103043.69;5080463;27;46434;-79
2022/01/18 12:15:32;;;;;;;;;15.33;10.67;;;;;10.99;54.82;103053.56;5069797;27;45938;-75
2022/01/18 12:18:02;;;;;;;;;13.00;11.00;;;;;10.98;54.86;103029.88;5083741;27;45425;-81
2022/01/18 12:20:34;;;;;;;;;14.33;12.67;;;;;10.89;55.31;103031.66;5070163;28;45619;-79
2022/01/18 12:26:39;;;;;;;;;9.33;9.33;;;;;10.65;54.79;103013.03;4994715;28;45397;-83
2022/01/18 12:29:36;;;;;;;;;12.33;11.33;;;;;10.59;55.10;103013.66;5011675;28;45326;-83
2022/01/18 12:32:28;;;;;;;;;11.67;9.67;;;;;10.60;54.79;103021.72;5067191;28;45595;-83
2022/01/18 12:35:01;;;;;;;;;12.00;10.00;;;;;10.30;55.21;102969.88;5073290;28;46565;-82
2022/01/18 12:37:28;;;;;;;;;14.67;11.33;;;;;10.54;55.73;102999.53;5091637;28;45386;-84
2022/01/18 12:39:54;;;;;;;;;10.33;8.67;;;;;10.53;55.05;102997.81;5074180;28;45253;-81
2022/01/18 12:45:17;;;;;;;;;13.67;10.00;;;;;10.54;55.45;103005.03;5092070;28;45329;-81
2022/01/18 12:47:59;;;;;;;;;13.67;10.00;;;;;10.50;55.57;102998.97;5052830;28;45560;-83
2022/01/18 12:50:33;;;;;;;;;11.33;10.00;;;;;10.45;55.43;102981.22;5070207;28;45370;-83
2022/01/18 12:53:02;;;;;;;;;13.00;10.33;;;;;10.21;54.83;102966.19;5051756;28;45730;-82
2022/01/18 12:55:38;;;;;;;;;11.33;10.00;;;;;10.28;55.30;102958.19;5051816;28;47581;-81
2022/01/18 12:58:28;;;;;;;;;13.33;10.00;;;;;10.44;55.43;102974.88;5037489;28;45893;-75
2022/01/18 13:01:06;;;;;;;;;14.00;11.67;;;;;10.50;54.63;102981.66;5062731;28;45419;-79
2022/01/18 13:03:35;;;;;;;;;15.00;11.00;;;;;10.58;54.67;102962.53;5084669;27;45431;-79
2022/01/18 13:06:12;;;;;;;;;13.33;10.67;;;;;10.67;55.07;102969.81;5104689;27;45358;-79
2022/01/18 13:08:55;;;;;;;;;16.33;13.33;;;;;10.71;54.78;102967.66;5093868;27;45473;-73
2022/01/18 13:11:26;;;;;;;;;13.67;12.00;;;;;10.78;54.46;102955.88;5078028;27;45701;-73
2022/01/18 13:13:59;;;;;;;;;13.67;12.00;;;;;10.81;54.78;102951.09;5059156;27;46014;-73
2022/01/18 13:27:12;;;;;;;;;15.67;14.33;;;;;10.90;54.20;102929.06;5093843;27;45859;-73
2022/01/18 13:29:38;;;;;;;;;15.00;11.67;;;;;10.96;54.52;102944.06;5094515;27;45421;-75